Larkhill, United Kingdom
Current Conditions -  °F | °C
As of 8:26 AM on Monday 26 Jan 2015 (Local Time) from EGDM Reporting Station
Light Rain Light Rain  
Wind Chill: 41°   Ceiling: 500
Heat Index: 46°   Visibility: 4mi
Dew Point: 46°   Wind: 13mph
Humidity: 100%   Direction: 260°W
Pressure: 30.18"   Gusts: NA
Location:  51.2°N, 1.8°W
Report Text: EGDM 260826Z 26011KT 6000 -RADZ BKN005 OVC012 08/08 Q1022 YLO1 TEMPO 3000 BKN003 YLO2
Loading
Personal Weather Stations






























Interactive Weather Map New forecast layout! Learn more

10-Day Weather Forecast

Advertisements
Track Severe Weather on mobile